sensor_id;sensor_type;location;lat;lon;timestamp;temperature;humidity
64111;DHT22;50401;48.188;11.566;2023-06-05T00:00:29;18.97;58.26
64111;DHT22;50401;48.188;11.566;2023-06-05T00:02:55;18.76;59.02
64111;DHT22;50401;48.188;11.566;2023-06-05T00:05:20;18.76;59.05
64111;DHT22;50401;48.188;11.566;2023-06-05T00:07:46;18.79;59.32
64111;DHT22;50401;48.188;11.566;2023-06-05T00:10:11;18.66;59.75
64111;DHT22;50401;48.188;11.566;2023-06-05T00:12:38;18.61;60.24
64111;DHT22;50401;48.188;11.566;2023-06-05T00:15:04;18.59;60.43
64111;DHT22;50401;48.188;11.566;2023-06-05T00:17:30;18.62;60.76
64111;DHT22;50401;48.188;11.566;2023-06-05T00:19:56;18.65;61.01
64111;DHT22;50401;48.188;11.566;2023-06-05T00:22:25;18.58;61.64
64111;DHT22;50401;48.188;11.566;2023-06-05T00:24:50;18.49;62.03
64111;DHT22;50401;48.188;11.566;2023-06-05T00:27:16;18.55;62.14
64111;DHT22;50401;48.188;11.566;2023-06-05T00:29:41;18.51;62.80
64111;DHT22;50401;48.188;11.566;2023-06-05T00:32:06;18.44;63.29
64111;DHT22;50401;48.188;11.566;2023-06-05T00:34:32;18.41;63.67
64111;DHT22;50401;48.188;11.566;2023-06-05T00:36:57;18.41;64.09
64111;DHT22;50401;48.188;11.566;2023-06-05T00:39:23;18.30;65.37
64111;DHT22;50401;48.188;11.566;2023-06-05T00:41:48;18.31;65.54
64111;DHT22;50401;48.188;11.566;2023-06-05T00:44:14;17.92;67.57
64111;DHT22;50401;48.188;11.566;2023-06-05T00:46:39;17.83;68.30
64111;DHT22;50401;48.188;11.566;2023-06-05T00:49:06;17.51;69.63
64111;DHT22;50401;48.188;11.566;2023-06-05T00:51:32;17.30;70.76
64111;DHT22;50401;48.188;11.566;2023-06-05T00:53:58;17.22;71.33
64111;DHT22;50401;48.188;11.566;2023-06-05T00:56:24;17.09;71.99
64111;DHT22;50401;48.188;11.566;2023-06-05T00:58:49;17.24;71.71
64111;DHT22;50401;48.188;11.566;2023-06-05T01:01:14;17.47;71.27
64111;DHT22;50401;48.188;11.566;2023-06-05T01:03:40;17.19;72.39
64111;DHT22;50401;48.188;11.566;2023-06-05T01:06:06;17.44;71.80
64111;DHT22;50401;48.188;11.566;2023-06-05T01:08:32;17.50;71.75
64111;DHT22;50401;48.188;11.566;2023-06-05T01:13:51;17.64;71.33
64111;DHT22;50401;48.188;11.566;2023-06-05T01:16:18;17.64;71.39
64111;DHT22;50401;48.188;11.566;2023-06-05T01:18:44;17.74;71.24
64111;DHT22;50401;48.188;11.566;2023-06-05T01:21:14;17.69;71.38
64111;DHT22;50401;48.188;11.566;2023-06-05T01:23:41;17.78;71.23
64111;DHT22;50401;48.188;11.566;2023-06-05T01:26:13;17.78;71.10
64111;DHT22;50401;48.188;11.566;2023-06-05T01:28:40;17.83;71.02
64111;DHT22;50401;48.188;11.566;2023-06-05T01:31:09;17.83;70.99
64111;DHT22;50401;48.188;11.566;2023-06-05T01:33:48;17.85;71.05
64111;DHT22;50401;48.188;11.566;2023-06-05T01:36:15;17.76;71.38
64111;DHT22;50401;48.188;11.566;2023-06-05T01:38:41;17.83;71.22
64111;DHT22;50401;48.188;11.566;2023-06-05T01:41:08;17.79;71.28
64111;DHT22;50401;48.188;11.566;2023-06-05T01:43:35;17.72;71.45
64111;DHT22;50401;48.188;11.566;2023-06-05T01:46:01;17.55;72.16
64111;DHT22;50401;48.188;11.566;2023-06-05T01:48:27;17.43;72.47
64111;DHT22;50401;48.188;11.566;2023-06-05T01:50:59;17.38;72.52
64111;DHT22;50401;48.188;11.566;2023-06-05T01:53:26;17.54;72.17
64111;DHT22;50401;48.188;11.566;2023-06-05T01:55:53;17.45;72.36
64111;DHT22;50401;48.188;11.566;2023-06-05T01:58:22;17.47;72.49
64111;DHT22;50401;48.188;11.566;2023-06-05T02:00:48;17.26;72.94
64111;DHT22;50401;48.188;11.566;2023-06-05T02:03:14;17.12;73.65
64111;DHT22;50401;48.188;11.566;2023-06-05T02:05:43;16.98;74.11
64111;DHT22;50401;48.188;11.566;2023-06-05T02:08:08;16.92;74.41
64111;DHT22;50401;48.188;11.566;2023-06-05T02:10:34;17.05;73.95
64111;DHT22;50401;48.188;11.566;2023-06-05T02:13:00;17.08;73.91
64111;DHT22;50401;48.188;11.566;2023-06-05T02:15:26;16.81;74.51
64111;DHT22;50401;48.188;11.566;2023-06-05T02:17:51;16.96;74.40
64111;DHT22;50401;48.188;11.566;2023-06-05T02:20:20;17.00;74.25
64111;DHT22;50401;48.188;11.566;2023-06-05T02:22:46;17.03;74.24
64111;DHT22;50401;48.188;11.566;2023-06-05T02:25:15;17.23;73.66
64111;DHT22;50401;48.188;11.566;2023-06-05T02:27:41;17.19;73.69
64111;DHT22;50401;48.188;11.566;2023-06-05T02:30:07;17.30;73.33
64111;DHT22;50401;48.188;11.566;2023-06-05T02:32:33;17.37;73.17
64111;DHT22;50401;48.188;11.566;2023-06-05T02:34:58;17.51;72.79
64111;DHT22;50401;48.188;11.566;2023-06-05T02:37:27;17.13;73.99
64111;DHT22;50401;48.188;11.566;2023-06-05T02:39:53;17.09;74.12
64111;DHT22;50401;48.188;11.566;2023-06-05T02:42:19;17.06;74.36
64111;DHT22;50401;48.188;11.566;2023-06-05T02:44:45;17.22;73.84
64111;DHT22;50401;48.188;11.566;2023-06-05T02:47:11;17.27;73.63
64111;DHT22;50401;48.188;11.566;2023-06-05T02:49:36;17.26;73.71
64111;DHT22;50401;48.188;11.566;2023-06-05T02:52:03;17.30;73.59
64111;DHT22;50401;48.188;11.566;2023-06-05T02:54:28;17.31;73.45
64111;DHT22;50401;48.188;11.566;2023-06-05T02:56:54;17.34;73.42
64111;DHT22;50401;48.188;11.566;2023-06-05T02:59:22;17.37;73.15
64111;DHT22;50401;48.188;11.566;2023-06-05T03:01:49;17.44;73.10
64111;DHT22;50401;48.188;11.566;2023-06-05T03:04:15;17.38;72.84
64111;DHT22;50401;48.188;11.566;2023-06-05T03:06:49;17.34;72.87
64111;DHT22;50401;48.188;11.566;2023-06-05T03:09:16;17.30;72.98
64111;DHT22;50401;48.188;11.566;2023-06-05T03:11:41;17.30;73.05
64111;DHT22;50401;48.188;11.566;2023-06-05T03:14:07;17.20;73.16
64111;DHT22;50401;48.188;11.566;2023-06-05T03:16:32;17.19;73.23
64111;DHT22;50401;48.188;11.566;2023-06-05T03:19:03;17.08;73.48
64111;DHT22;50401;48.188;11.566;2023-06-05T03:21:28;17.05;73.44
64111;DHT22;50401;48.188;11.566;2023-06-05T03:23:53;17.12;73.38
64111;DHT22;50401;48.188;11.566;2023-06-05T03:26:19;17.13;73.25
64111;DHT22;50401;48.188;11.566;2023-06-05T03:28:47;17.19;73.16
64111;DHT22;50401;48.188;11.566;2023-06-05T03:31:12;17.06;73.39
64111;DHT22;50401;48.188;11.566;2023-06-05T03:33:38;17.03;73.57
64111;DHT22;50401;48.188;11.566;2023-06-05T03:36:03;17.02;73.59
64111;DHT22;50401;48.188;11.566;2023-06-05T03:38:30;17.06;73.53
64111;DHT22;50401;48.188;11.566;2023-06-05T03:40:55;16.99;73.68
64111;DHT22;50401;48.188;11.566;2023-06-05T03:43:21;16.95;73.86
64111;DHT22;50401;48.188;11.566;2023-06-05T03:45:46;16.91;73.91
64111;DHT22;50401;48.188;11.566;2023-06-05T03:48:11;16.85;74.23
64111;DHT22;50401;48.188;11.566;2023-06-05T03:50:38;16.64;74.67
64111;DHT22;50401;48.188;11.566;2023-06-05T03:53:04;16.63;74.98
64111;DHT22;50401;48.188;11.566;2023-06-05T03:55:33;16.41;75.76
64111;DHT22;50401;48.188;11.566;2023-06-05T03:58:14;16.44;75.68
64111;DHT22;50401;48.188;11.566;2023-06-05T04:00:44;16.64;75.21
64111;DHT22;50401;48.188;11.566;2023-06-05T04:03:11;16.81;74.74
64111;DHT22;50401;48.188;11.566;2023-06-05T04:05:41;16.91;74.29
64111;DHT22;50401;48.188;11.566;2023-06-05T04:08:08;17.02;74.04
64111;DHT22;50401;48.188;11.566;2023-06-05T04:10:34;16.98;74.04
64111;DHT22;50401;48.188;11.566;2023-06-05T04:13:00;17.05;73.86
64111;DHT22;50401;48.188;11.566;2023-06-05T04:15:26;17.12;73.70
64111;DHT22;50401;48.188;11.566;2023-06-05T04:17:51;17.12;73.64
64111;DHT22;50401;48.188;11.566;2023-06-05T04:20:17;17.10;73.66
64111;DHT22;50401;48.188;11.566;2023-06-05T04:22:43;16.99;73.97
64111;DHT22;50401;48.188;11.566;2023-06-05T04:25:10;16.98;74.22
64111;DHT22;50401;48.188;11.566;2023-06-05T04:27:38;17.00;74.08
64111;DHT22;50401;48.188;11.566;2023-06-05T04:30:07;16.99;74.21
64111;DHT22;50401;48.188;11.566;2023-06-05T04:32:34;16.91;74.45
64111;DHT22;50401;48.188;11.566;2023-06-05T04:35:03;16.95;74.52
64111;DHT22;50401;48.188;11.566;2023-06-05T04:37:28;16.98;74.45
64111;DHT22;50401;48.188;11.566;2023-06-05T04:39:53;17.06;74.27
64111;DHT22;50401;48.188;11.566;2023-06-05T04:42:20;17.08;74.29
64111;DHT22;50401;48.188;11.566;2023-06-05T04:44:56;16.95;74.51
64111;DHT22;50401;48.188;11.566;2023-06-05T04:47:22;16.98;74.79
64111;DHT22;50401;48.188;11.566;2023-06-05T04:49:47;17.03;74.70
64111;DHT22;50401;48.188;11.566;2023-06-05T04:52:14;17.08;74.49
64111;DHT22;50401;48.188;11.566;2023-06-05T04:54:39;17.15;74.46
64111;DHT22;50401;48.188;11.566;2023-06-05T04:57:05;17.28;74.20
64111;DHT22;50401;48.188;11.566;2023-06-05T04:59:31;17.28;74.20
64111;DHT22;50401;48.188;11.566;2023-06-05T05:01:57;17.05;74.91
64111;DHT22;50401;48.188;11.566;2023-06-05T05:04:23;17.17;74.56
64111;DHT22;50401;48.188;11.566;2023-06-05T05:06:48;17.28;74.48
64111;DHT22;50401;48.188;11.566;2023-06-05T05:09:16;17.28;74.44
64111;DHT22;50401;48.188;11.566;2023-06-05T05:11:42;17.27;74.37
64111;DHT22;50401;48.188;11.566;2023-06-05T05:14:07;17.38;74.23
64111;DHT22;50401;48.188;11.566;2023-06-05T05:16:32;17.43;74.26
64111;DHT22;50401;48.188;11.566;2023-06-05T05:18:58;17.44;73.92
64111;DHT22;50401;48.188;11.566;2023-06-05T05:21:23;17.38;74.31
64111;DHT22;50401;48.188;11.566;2023-06-05T05:23:49;17.51;73.94
64111;DHT22;50401;48.188;11.566;2023-06-05T05:26:14;17.52;73.72
64111;DHT22;50401;48.188;11.566;2023-06-05T05:28:40;17.48;73.86
64111;DHT22;50401;48.188;11.566;2023-06-05T05:31:05;17.54;73.78
64111;DHT22;50401;48.188;11.566;2023-06-05T05:33:31;17.58;73.46
64111;DHT22;50401;48.188;11.566;2023-06-05T05:35:56;17.48;73.70
64111;DHT22;50401;48.188;11.566;2023-06-05T05:38:21;17.24;74.54
64111;DHT22;50401;48.188;11.566;2023-06-05T05:40:47;17.50;74.12
64111;DHT22;50401;48.188;11.566;2023-06-05T05:43:12;17.43;74.15
64111;DHT22;50401;48.188;11.566;2023-06-05T05:45:38;17.65;73.37
64111;DHT22;50401;48.188;11.566;2023-06-05T05:48:05;17.82;73.06
64111;DHT22;50401;48.188;11.566;2023-06-05T05:50:30;17.93;72.58
64111;DHT22;50401;48.188;11.566;2023-06-05T05:52:56;18.00;72.36
64111;DHT22;50401;48.188;11.566;2023-06-05T05:55:21;18.00;71.93
64111;DHT22;50401;48.188;11.566;2023-06-05T05:57:46;18.16;71.62
64111;DHT22;50401;48.188;11.566;2023-06-05T06:00:12;18.24;71.40
64111;DHT22;50401;48.188;11.566;2023-06-05T06:02:39;18.23;71.38
64111;DHT22;50401;48.188;11.566;2023-06-05T06:05:05;17.95;72.01
64111;DHT22;50401;48.188;11.566;2023-06-05T06:07:31;17.43;73.50
64111;DHT22;50401;48.188;11.566;2023-06-05T06:09:57;17.15;74.49
64111;DHT22;50401;48.188;11.566;2023-06-05T06:12:22;16.88;75.11
64111;DHT22;50401;48.188;11.566;2023-06-05T06:14:48;16.91;75.16
64111;DHT22;50401;48.188;11.566;2023-06-05T06:17:14;17.34;74.04
64111;DHT22;50401;48.188;11.566;2023-06-05T06:19:39;17.31;74.20
64111;DHT22;50401;48.188;11.566;2023-06-05T06:22:06;17.48;73.53
64111;DHT22;50401;48.188;11.566;2023-06-05T06:24:37;17.09;74.26
64111;DHT22;50401;48.188;11.566;2023-06-05T06:27:03;16.89;75.48
64111;DHT22;50401;48.188;11.566;2023-06-05T06:29:29;17.06;75.21
64111;DHT22;50401;48.188;11.566;2023-06-05T06:31:56;16.95;75.46
64111;DHT22;50401;48.188;11.566;2023-06-05T06:34:22;17.12;74.91
64111;DHT22;50401;48.188;11.566;2023-06-05T06:36:47;16.96;75.30
64111;DHT22;50401;48.188;11.566;2023-06-05T06:39:12;16.91;75.74
64111;DHT22;50401;48.188;11.566;2023-06-05T06:41:38;17.23;75.16
64111;DHT22;50401;48.188;11.566;2023-06-05T06:44:04;17.22;74.94
64111;DHT22;50401;48.188;11.566;2023-06-05T06:46:30;17.69;73.95
64111;DHT22;50401;48.188;11.566;2023-06-05T06:48:56;17.69;73.82
64111;DHT22;50401;48.188;11.566;2023-06-05T06:51:21;17.41;74.50
64111;DHT22;50401;48.188;11.566;2023-06-05T06:53:50;17.61;73.69
64111;DHT22;50401;48.188;11.566;2023-06-05T06:56:16;17.60;74.40
64111;DHT22;50401;48.188;11.566;2023-06-05T06:58:43;18.26;72.38
64111;DHT22;50401;48.188;11.566;2023-06-05T07:01:13;18.61;71.06
64111;DHT22;50401;48.188;11.566;2023-06-05T07:03:40;18.48;71.69
64111;DHT22;50401;48.188;11.566;2023-06-05T07:06:06;19.24;68.58
64111;DHT22;50401;48.188;11.566;2023-06-05T07:08:31;20.38;66.56
64111;DHT22;50401;48.188;11.566;2023-06-05T07:10:57;19.66;67.52
64111;DHT22;50401;48.188;11.566;2023-06-05T07:13:22;21.29;63.68
64111;DHT22;50401;48.188;11.566;2023-06-05T07:15:48;21.39;62.81
64111;DHT22;50401;48.188;11.566;2023-06-05T07:18:16;20.59;65.37
64111;DHT22;50401;48.188;11.566;2023-06-05T07:20:42;21.61;62.62
64111;DHT22;50401;48.188;11.566;2023-06-05T07:23:07;22.06;61.07
64111;DHT22;50401;48.188;11.566;2023-06-05T07:25:33;21.43;63.00
64111;DHT22;50401;48.188;11.566;2023-06-05T07:27:58;21.22;63.03
64111;DHT22;50401;48.188;11.566;2023-06-05T07:30:25;22.40;59.83
64111;DHT22;50401;48.188;11.566;2023-06-05T07:32:51;23.13;58.15
64111;DHT22;50401;48.188;11.566;2023-06-05T07:35:16;22.15;60.04
64111;DHT22;50401;48.188;11.566;2023-06-05T07:37:41;20.55;64.33
64111;DHT22;50401;48.188;11.566;2023-06-05T07:40:07;21.19;62.37
64111;DHT22;50401;48.188;11.566;2023-06-05T07:42:33;20.62;63.92
64111;DHT22;50401;48.188;11.566;2023-06-05T07:44:59;20.36;65.90
64111;DHT22;50401;48.188;11.566;2023-06-05T07:47:25;20.35;65.25
64111;DHT22;50401;48.188;11.566;2023-06-05T07:50:00;20.76;64.06
64111;DHT22;50401;48.188;11.566;2023-06-05T07:52:36;20.97;63.52
64111;DHT22;50401;48.188;11.566;2023-06-05T07:55:02;20.87;63.77
64111;DHT22;50401;48.188;11.566;2023-06-05T07:57:29;23.15;58.19
64111;DHT22;50401;48.188;11.566;2023-06-05T07:59:54;23.57;56.82
64111;DHT22;50401;48.188;11.566;2023-06-05T08:02:20;24.16;54.31
64111;DHT22;50401;48.188;11.566;2023-06-05T08:04:46;25.02;52.52
64111;DHT22;50401;48.188;11.566;2023-06-05T08:07:11;25.34;51.34
64111;DHT22;50401;48.188;11.566;2023-06-05T08:09:37;22.91;57.36
64111;DHT22;50401;48.188;11.566;2023-06-05T08:12:06;24.56;53.75
64111;DHT22;50401;48.188;11.566;2023-06-05T08:14:33;24.72;53.10
64111;DHT22;50401;48.188;11.566;2023-06-05T08:16:58;25.26;51.78
64111;DHT22;50401;48.188;11.566;2023-06-05T08:19:24;23.89;54.37
64111;DHT22;50401;48.188;11.566;2023-06-05T08:21:53;24.27;53.95
64111;DHT22;50401;48.188;11.566;2023-06-05T08:24:22;24.30;54.19
64111;DHT22;50401;48.188;11.566;2023-06-05T08:26:47;25.40;51.24
64111;DHT22;50401;48.188;11.566;2023-06-05T08:29:13;26.23;49.84
64111;DHT22;50401;48.188;11.566;2023-06-05T08:31:38;26.58;48.54
64111;DHT22;50401;48.188;11.566;2023-06-05T08:34:04;26.04;49.69
64111;DHT22;50401;48.188;11.566;2023-06-05T08:36:30;24.72;53.09
64111;DHT22;50401;48.188;11.566;2023-06-05T08:38:58;25.09;52.17
64111;DHT22;50401;48.188;11.566;2023-06-05T08:41:24;25.61;50.22
64111;DHT22;50401;48.188;11.566;2023-06-05T08:43:50;25.89;49.40
64111;DHT22;50401;48.188;11.566;2023-06-05T08:46:16;24.47;52.08
64111;DHT22;50401;48.188;11.566;2023-06-05T08:48:45;25.30;50.93
64111;DHT22;50401;48.188;11.566;2023-06-05T08:51:15;25.57;50.68
64111;DHT22;50401;48.188;11.566;2023-06-05T08:53:46;23.56;55.13
64111;DHT22;50401;48.188;11.566;2023-06-05T08:56:13;24.51;52.80
64111;DHT22;50401;48.188;11.566;2023-06-05T08:58:38;22.86;56.32
64111;DHT22;50401;48.188;11.566;2023-06-05T09:01:04;22.77;56.93
64111;DHT22;50401;48.188;11.566;2023-06-05T09:03:32;24.08;52.03
64111;DHT22;50401;48.188;11.566;2023-06-05T09:05:58;25.00;50.43
64111;DHT22;50401;48.188;11.566;2023-06-05T09:08:31;24.79;49.76
64111;DHT22;50401;48.188;11.566;2023-06-05T09:11:27;24.69;50.61
64111;DHT22;50401;48.188;11.566;2023-06-05T09:13:54;24.64;51.04
64111;DHT22;50401;48.188;11.566;2023-06-05T09:16:22;24.02;52.86
64111;DHT22;50401;48.188;11.566;2023-06-05T09:18:57;23.70;53.05
64111;DHT22;50401;48.188;11.566;2023-06-05T09:21:24;22.63;56.32
64111;DHT22;50401;48.188;11.566;2023-06-05T09:24:10;24.17;52.57
64111;DHT22;50401;48.188;11.566;2023-06-05T09:29:22;25.74;49.38
64111;DHT22;50401;48.188;11.566;2023-06-05T09:31:48;25.31;50.21
64111;DHT22;50401;48.188;11.566;2023-06-05T09:34:27;24.56;51.37
64111;DHT22;50401;48.188;11.566;2023-06-05T09:36:54;24.37;51.34
64111;DHT22;50401;48.188;11.566;2023-06-05T09:39:21;24.96;49.91
64111;DHT22;50401;48.188;11.566;2023-06-05T09:41:48;25.13;49.47
64111;DHT22;50401;48.188;11.566;2023-06-05T09:44:17;24.82;50.50
64111;DHT22;50401;48.188;11.566;2023-06-05T09:46:54;24.23;51.77
64111;DHT22;50401;48.188;11.566;2023-06-05T09:49:20;24.47;51.39
64111;DHT22;50401;48.188;11.566;2023-06-05T09:51:46;24.85;50.72
64111;DHT22;50401;48.188;11.566;2023-06-05T09:54:13;25.19;50.15
64111;DHT22;50401;48.188;11.566;2023-06-05T09:56:46;25.45;49.00
64111;DHT22;50401;48.188;11.566;2023-06-05T09:59:18;24.81;49.66
64111;DHT22;50401;48.188;11.566;2023-06-05T10:01:45;24.64;49.75
64111;DHT22;50401;48.188;11.566;2023-06-05T10:04:13;24.26;51.27
64111;DHT22;50401;48.188;11.566;2023-06-05T10:06:42;24.75;50.28
64111;DHT22;50401;48.188;11.566;2023-06-05T10:09:08;24.17;50.20
64111;DHT22;50401;48.188;11.566;2023-06-05T10:11:35;23.85;50.59
64111;DHT22;50401;48.188;11.566;2023-06-05T10:14:00;23.78;51.02
64111;DHT22;50401;48.188;11.566;2023-06-05T10:16:28;23.53;52.91
64111;DHT22;50401;48.188;11.566;2023-06-05T10:18:55;23.11;53.52
64111;DHT22;50401;48.188;11.566;2023-06-05T10:21:22;23.01;54.80
64111;DHT22;50401;48.188;11.566;2023-06-05T10:24:20;23.36;53.55
64111;DHT22;50401;48.188;11.566;2023-06-05T10:40:33;22.54;55.18
64111;DHT22;50401;48.188;11.566;2023-06-05T10:43:32;23.19;52.79
64111;DHT22;50401;48.188;11.566;2023-06-05T10:46:27;23.50;52.70
64111;DHT22;50401;48.188;11.566;2023-06-05T10:49:09;23.51;53.10
64111;DHT22;50401;48.188;11.566;2023-06-05T10:51:36;23.16;53.60
64111;DHT22;50401;48.188;11.566;2023-06-05T10:59:22;22.65;53.75
64111;DHT22;50401;48.188;11.566;2023-06-05T11:07:21;23.02;53.11
64111;DHT22;50401;48.188;11.566;2023-06-05T11:17:47;22.91;53.41
64111;DHT22;50401;48.188;11.566;2023-06-05T11:27:56;23.58;51.73
64111;DHT22;50401;48.188;11.566;2023-06-05T11:30:26;23.54;51.57
64111;DHT22;50401;48.188;11.566;2023-06-05T11:32:54;23.63;51.34
64111;DHT22;50401;48.188;11.566;2023-06-05T11:35:25;23.40;51.62
64111;DHT22;50401;48.188;11.566;2023-06-05T11:38:26;23.61;51.03
64111;DHT22;50401;48.188;11.566;2023-06-05T11:40:53;22.83;53.33
64111;DHT22;50401;48.188;11.566;2023-06-05T11:43:19;22.47;54.78
64111;DHT22;50401;48.188;11.566;2023-06-05T11:45:56;22.91;53.77
64111;DHT22;50401;48.188;11.566;2023-06-05T11:48:22;22.92;53.71
64111;DHT22;50401;48.188;11.566;2023-06-05T11:51:02;22.13;54.95
64111;DHT22;50401;48.188;11.566;2023-06-05T11:53:28;22.16;54.89
64111;DHT22;50401;48.188;11.566;2023-06-05T11:55:55;22.42;54.78
64111;DHT22;50401;48.188;11.566;2023-06-05T11:58:37;22.94;53.61
64111;DHT22;50401;48.188;11.566;2023-06-05T12:01:14;22.64;54.41
64111;DHT22;50401;48.188;11.566;2023-06-05T12:03:43;22.52;55.82
64111;DHT22;50401;48.188;11.566;2023-06-05T12:06:09;22.47;55.64
64111;DHT22;50401;48.188;11.566;2023-06-05T12:08:34;22.68;54.10
64111;DHT22;50401;48.188;11.566;2023-06-05T12:11:02;22.53;55.24
64111;DHT22;50401;48.188;11.566;2023-06-05T12:13:56;22.80;54.64
64111;DHT22;50401;48.188;11.566;2023-06-05T12:19:01;23.24;53.61
64111;DHT22;50401;48.188;11.566;2023-06-05T12:21:27;22.67;55.20
64111;DHT22;50401;48.188;11.566;2023-06-05T12:24:04;22.80;54.60
64111;DHT22;50401;48.188;11.566;2023-06-05T12:26:30;22.33;55.94
64111;DHT22;50401;48.188;11.566;2023-06-05T12:29:12;22.92;55.95
64111;DHT22;50401;48.188;11.566;2023-06-05T12:31:37;23.12;54.94
64111;DHT22;50401;48.188;11.566;2023-06-05T12:34:05;23.18;55.02
64111;DHT22;50401;48.188;11.566;2023-06-05T12:36:37;23.01;56.08
64111;DHT22;50401;48.188;11.566;2023-06-05T12:39:02;23.26;55.85
64111;DHT22;50401;48.188;11.566;2023-06-05T12:41:32;23.26;55.60
64111;DHT22;50401;48.188;11.566;2023-06-05T12:44:01;23.01;56.35
64111;DHT22;50401;48.188;11.566;2023-06-05T12:46:29;23.01;55.95
64111;DHT22;50401;48.188;11.566;2023-06-05T12:48:55;22.35;57.80
64111;DHT22;50401;48.188;11.566;2023-06-05T12:51:23;22.37;58.58
64111;DHT22;50401;48.188;11.566;2023-06-05T12:53:49;22.75;56.88
64111;DHT22;50401;48.188;11.566;2023-06-05T12:56:14;22.95;56.58
64111;DHT22;50401;48.188;11.566;2023-06-05T12:58:39;23.15;55.70
64111;DHT22;50401;48.188;11.566;2023-06-05T13:01:05;22.67;56.69
64111;DHT22;50401;48.188;11.566;2023-06-05T13:03:30;22.63;57.46
64111;DHT22;50401;48.188;11.566;2023-06-05T13:05:56;22.80;56.81
64111;DHT22;50401;48.188;11.566;2023-06-05T13:08:21;22.39;57.72
64111;DHT22;50401;48.188;11.566;2023-06-05T13:10:46;22.25;59.02
64111;DHT22;50401;48.188;11.566;2023-06-05T13:13:12;22.36;58.47
64111;DHT22;50401;48.188;11.566;2023-06-05T13:15:37;22.77;56.69
64111;DHT22;50401;48.188;11.566;2023-06-05T13:18:02;22.91;57.61
64111;DHT22;50401;48.188;11.566;2023-06-05T13:20:28;21.98;60.66
64111;DHT22;50401;48.188;11.566;2023-06-05T13:22:53;21.91;60.17
64111;DHT22;50401;48.188;11.566;2023-06-05T13:25:19;21.71;61.10
64111;DHT22;50401;48.188;11.566;2023-06-05T13:27:47;22.06;60.01
64111;DHT22;50401;48.188;11.566;2023-06-05T13:30:12;22.45;58.38
64111;DHT22;50401;48.188;11.566;2023-06-05T13:32:38;22.57;58.85
64111;DHT22;50401;48.188;11.566;2023-06-05T13:35:04;21.98;59.98
64111;DHT22;50401;48.188;11.566;2023-06-05T13:37:31;22.28;59.45
64111;DHT22;50401;48.188;11.566;2023-06-05T13:39:56;22.00;59.84
64111;DHT22;50401;48.188;11.566;2023-06-05T13:42:21;22.01;59.94
64111;DHT22;50401;48.188;11.566;2023-06-05T13:44:47;22.26;59.07
64111;DHT22;50401;48.188;11.566;2023-06-05T13:47:12;22.18;59.18
64111;DHT22;50401;48.188;11.566;2023-06-05T13:49:37;22.30;58.80
64111;DHT22;50401;48.188;11.566;2023-06-05T13:52:03;22.33;57.75
64111;DHT22;50401;48.188;11.566;2023-06-05T13:54:28;22.25;58.69
64111;DHT22;50401;48.188;11.566;2023-06-05T13:56:54;22.09;58.65
64111;DHT22;50401;48.188;11.566;2023-06-05T13:59:19;22.12;59.14
64111;DHT22;50401;48.188;11.566;2023-06-05T14:01:44;22.25;59.26
64111;DHT22;50401;48.188;11.566;2023-06-05T14:04:10;21.66;60.45
64111;DHT22;50401;48.188;11.566;2023-06-05T14:06:35;21.67;60.66
64111;DHT22;50401;48.188;11.566;2023-06-05T14:09:04;21.78;59.75
64111;DHT22;50401;48.188;11.566;2023-06-05T14:11:30;22.06;59.26
64111;DHT22;50401;48.188;11.566;2023-06-05T14:13:56;22.05;59.51
64111;DHT22;50401;48.188;11.566;2023-06-05T14:16:21;22.08;59.74
64111;DHT22;50401;48.188;11.566;2023-06-05T14:18:46;21.97;60.05
64111;DHT22;50401;48.188;11.566;2023-06-05T14:21:12;21.54;60.47
64111;DHT22;50401;48.188;11.566;2023-06-05T14:23:37;21.21;61.31
64111;DHT22;50401;48.188;11.566;2023-06-05T14:26:03;21.25;61.46
64111;DHT22;50401;48.188;11.566;2023-06-05T14:28:29;21.67;60.56
64111;DHT22;50401;48.188;11.566;2023-06-05T14:30:54;21.49;60.60
64111;DHT22;50401;48.188;11.566;2023-06-05T14:33:19;21.57;60.58
64111;DHT22;50401;48.188;11.566;2023-06-05T14:35:45;21.67;59.98
64111;DHT22;50401;48.188;11.566;2023-06-05T14:38:10;21.84;59.54
64111;DHT22;50401;48.188;11.566;2023-06-05T14:40:39;22.02;58.78
64111;DHT22;50401;48.188;11.566;2023-06-05T14:43:05;21.94;59.33
64111;DHT22;50401;48.188;11.566;2023-06-05T14:45:31;21.69;60.20
64111;DHT22;50401;48.188;11.566;2023-06-05T14:47:56;21.64;60.69
64111;DHT22;50401;48.188;11.566;2023-06-05T14:50:22;21.97;60.28
64111;DHT22;50401;48.188;11.566;2023-06-05T14:52:47;21.80;60.53
64111;DHT22;50401;48.188;11.566;2023-06-05T14:55:12;21.94;60.08
64111;DHT22;50401;48.188;11.566;2023-06-05T14:57:38;21.95;59.74
64111;DHT22;50401;48.188;11.566;2023-06-05T15:00:05;22.00;59.08
64111;DHT22;50401;48.188;11.566;2023-06-05T15:02:30;21.90;59.72
64111;DHT22;50401;48.188;11.566;2023-06-05T15:04:56;22.22;58.04
64111;DHT22;50401;48.188;11.566;2023-06-05T15:07:24;22.11;58.91
64111;DHT22;50401;48.188;11.566;2023-06-05T15:09:49;22.33;57.93
64111;DHT22;50401;48.188;11.566;2023-06-05T15:12:16;22.42;58.32
64111;DHT22;50401;48.188;11.566;2023-06-05T15:14:42;22.40;57.72
64111;DHT22;50401;48.188;11.566;2023-06-05T15:17:07;22.36;57.93
64111;DHT22;50401;48.188;11.566;2023-06-05T15:19:33;22.47;57.97
64111;DHT22;50401;48.188;11.566;2023-06-05T15:21:59;22.53;57.31
64111;DHT22;50401;48.188;11.566;2023-06-05T15:24:26;22.49;57.36
64111;DHT22;50401;48.188;11.566;2023-06-05T15:26:51;22.18;58.75
64111;DHT22;50401;48.188;11.566;2023-06-05T15:29:17;21.66;60.21
64111;DHT22;50401;48.188;11.566;2023-06-05T15:31:42;21.46;60.57
64111;DHT22;50401;48.188;11.566;2023-06-05T15:34:08;22.04;58.83
64111;DHT22;50401;48.188;11.566;2023-06-05T15:36:33;22.30;58.66
64111;DHT22;50401;48.188;11.566;2023-06-05T15:38:58;22.02;58.73
64111;DHT22;50401;48.188;11.566;2023-06-05T15:41:24;21.81;59.48
64111;DHT22;50401;48.188;11.566;2023-06-05T15:43:51;22.00;58.23
64111;DHT22;50401;48.188;11.566;2023-06-05T15:46:16;21.85;58.21
64111;DHT22;50401;48.188;11.566;2023-06-05T15:48:41;22.06;58.10
64111;DHT22;50401;48.188;11.566;2023-06-05T15:51:07;21.84;59.79
64111;DHT22;50401;48.188;11.566;2023-06-05T15:53:33;21.84;59.72
64111;DHT22;50401;48.188;11.566;2023-06-05T15:55:59;21.85;59.73
64111;DHT22;50401;48.188;11.566;2023-06-05T15:58:26;21.46;61.25
64111;DHT22;50401;48.188;11.566;2023-06-05T16:00:51;21.70;60.64
64111;DHT22;50401;48.188;11.566;2023-06-05T16:03:17;21.25;61.48